Realtime data from ferrybox TransPaper


TransPaper. Data shown below have not been quality controlled.

Date Time
(UTC)
Region
(Nr)
Temp
(°C)
Salinity
(PSU)
Cphyl A
(µg/l)
Phyco
(µg/l)
OxyS
(proc)
Turb
(NTU)
2018-02-15 14:11:31 14 3.62 7.22 3.67 3.52 - 1.42
2018-02-15 10:02:20 13 3.87 7.22 3.09 3.52 - 1.40
2018-02-15 05:25:15 12 3.79 7.17 3.39 3.48 - 1.43
2018-02-15 02:41:21 11 3.54 7.09 3.73 3.46 - 1.47
2018-02-14 23:56:48 10 3.57 6.93 4.09 3.41 - 1.53
2018-02-14 21:13:36 9 2.56 6.15 5.02 3.36 - 1.63
2018-02-14 17:43:43 8 1.34 5.35 5.53 3.32 - 1.85
2018-02-14 12:48:51 7 1.77 5.52 4.19 3.26 - 1.62
2018-02-14 08:20:58 6 1.94 5.53 3.98 3.17 - 1.70
2018-02-14 05:19:20 5 1.34 5.42 4.36 3.12 - 1.71
2018-02-14 02:35:22 4 0.30 5.38 4.76 3.08 - 2.22
2018-02-13 23:47:41 3 -0.11 3.08 4.76 3.07 - 1.59
2018-02-13 20:16:20 2 -0.10 2.94 4.80 3.05 - 1.57
2018-02-12 03:38:05 2 -0.09 2.92 4.87 2.98 - 1.52
2018-02-12 00:24:10 3 1.06 3.07 3.30 3.01 - 1.79
2018-02-11 21:43:36 4 0.42 5.40 4.75 3.07 - 2.25
2018-02-11 19:21:01 5 1.76 5.47 4.28 3.10 - 1.65
2018-02-11 16:54:02 6 1.96 5.47 4.13 3.12 - 1.67
2018-02-11 13:24:33 7 1.80 5.48 4.65 3.09 - 1.65
2018-02-11 09:26:59 8 1.01 5.27 5.64 3.15 - 1.80
2018-02-11 06:33:59 9 2.66 6.36 4.44 3.18 - 1.61
2018-02-11 04:20:49 10 3.56 6.96 3.89 3.22 - 1.47
2018-02-11 02:12:26 11 3.80 7.18 3.44 3.22 - 1.40
2018-02-11 00:01:00 12 3.94 7.14 3.27 3.21 - 1.38
2018-02-10 20:14:37 13 3.79 7.18 3.67 3.22 - 1.39